sensor_id;sensor_type;location;lat;lon;timestamp;P1;durP1;ratioP1;P2;durP2;ratioP2
8592;SDS011;4334;49.982;8.398;2022-07-23T00:00:04;5.97;;;5.20;;
8592;SDS011;4334;49.982;8.398;2022-07-23T00:02:32;6.57;;;5.60;;
8592;SDS011;4334;49.982;8.398;2022-07-23T00:04:59;5.90;;;5.22;;
8592;SDS011;4334;49.982;8.398;2022-07-23T00:07:26;6.63;;;5.10;;
8592;SDS011;4334;49.982;8.398;2022-07-23T00:09:52;6.07;;;5.20;;
8592;SDS011;4334;49.982;8.398;2022-07-23T00:12:20;6.65;;;4.78;;
8592;SDS011;4334;49.982;8.398;2022-07-23T00:14:47;5.43;;;4.78;;
8592;SDS011;4334;49.982;8.398;2022-07-23T00:17:14;7.53;;;4.88;;
8592;SDS011;4334;49.982;8.398;2022-07-23T00:19:40;6.17;;;4.80;;
8592;SDS011;4334;49.982;8.398;2022-07-23T00:22:07;5.25;;;4.75;;
8592;SDS011;4334;49.982;8.398;2022-07-23T00:24:34;6.55;;;4.60;;
8592;SDS011;4334;49.982;8.398;2022-07-23T00:27:01;5.32;;;4.78;;
8592;SDS011;4334;49.982;8.398;2022-07-23T00:29:28;6.97;;;4.73;;
8592;SDS011;4334;49.982;8.398;2022-07-23T00:31:55;5.30;;;4.80;;
8592;SDS011;4334;49.982;8.398;2022-07-23T00:34:22;6.10;;;4.87;;
8592;SDS011;4334;49.982;8.398;2022-07-23T00:36:49;7.07;;;4.93;;
8592;SDS011;4334;49.982;8.398;2022-07-23T00:39:15;8.23;;;5.10;;
8592;SDS011;4334;49.982;8.398;2022-07-23T00:41:43;6.55;;;5.00;;
8592;SDS011;4334;49.982;8.398;2022-07-23T00:44:16;7.20;;;4.87;;
8592;SDS011;4334;49.982;8.398;2022-07-23T00:46:46;6.73;;;5.30;;
8592;SDS011;4334;49.982;8.398;2022-07-23T00:49:14;5.40;;;4.90;;
8592;SDS011;4334;49.982;8.398;2022-07-23T00:51:41;7.17;;;5.07;;
8592;SDS011;4334;49.982;8.398;2022-07-23T00:54:09;6.10;;;5.00;;
8592;SDS011;4334;49.982;8.398;2022-07-23T00:56:36;7.43;;;5.30;;
8592;SDS011;4334;49.982;8.398;2022-07-23T00:59:03;6.75;;;5.10;;
8592;SDS011;4334;49.982;8.398;2022-07-23T01:01:30;5.80;;;5.10;;
8592;SDS011;4334;49.982;8.398;2022-07-23T01:03:58;6.73;;;4.77;;
8592;SDS011;4334;49.982;8.398;2022-07-23T01:06:25;9.57;;;5.40;;
8592;SDS011;4334;49.982;8.398;2022-07-23T01:08:51;6.03;;;5.00;;
8592;SDS011;4334;49.982;8.398;2022-07-23T01:11:24;6.60;;;5.10;;
8592;SDS011;4334;49.982;8.398;2022-07-23T01:13:51;5.60;;;5.00;;
8592;SDS011;4334;49.982;8.398;2022-07-23T01:16:19;6.68;;;4.72;;
8592;SDS011;4334;49.982;8.398;2022-07-23T01:18:46;9.30;;;5.10;;
8592;SDS011;4334;49.982;8.398;2022-07-23T01:21:14;7.50;;;5.27;;
8592;SDS011;4334;49.982;8.398;2022-07-23T01:23:46;6.93;;;5.13;;
8592;SDS011;4334;49.982;8.398;2022-07-23T01:26:12;8.13;;;5.53;;
8592;SDS011;4334;49.982;8.398;2022-07-23T01:28:42;8.40;;;5.30;;
8592;SDS011;4334;49.982;8.398;2022-07-23T01:31:09;7.17;;;5.57;;
8592;SDS011;4334;49.982;8.398;2022-07-23T01:33:35;6.13;;;5.53;;
8592;SDS011;4334;49.982;8.398;2022-07-23T01:36:02;7.03;;;6.07;;
8592;SDS011;4334;49.982;8.398;2022-07-23T01:38:29;8.50;;;6.17;;
8592;SDS011;4334;49.982;8.398;2022-07-23T01:40:57;6.73;;;5.97;;
8592;SDS011;4334;49.982;8.398;2022-07-23T01:43:24;7.63;;;6.13;;
8592;SDS011;4334;49.982;8.398;2022-07-23T01:45:51;6.97;;;5.70;;
8592;SDS011;4334;49.982;8.398;2022-07-23T01:48:17;6.87;;;6.17;;
8592;SDS011;4334;49.982;8.398;2022-07-23T01:50:45;7.20;;;5.77;;
8592;SDS011;4334;49.982;8.398;2022-07-23T01:53:12;7.50;;;5.60;;
8592;SDS011;4334;49.982;8.398;2022-07-23T01:55:39;7.53;;;5.87;;
8592;SDS011;4334;49.982;8.398;2022-07-23T01:58:07;9.30;;;6.30;;
8592;SDS011;4334;49.982;8.398;2022-07-23T02:00:34;7.30;;;6.07;;
8592;SDS011;4334;49.982;8.398;2022-07-23T02:03:01;7.67;;;6.20;;
8592;SDS011;4334;49.982;8.398;2022-07-23T02:05:28;7.67;;;6.40;;
8592;SDS011;4334;49.982;8.398;2022-07-23T02:07:55;8.30;;;6.60;;
8592;SDS011;4334;49.982;8.398;2022-07-23T02:10:23;8.87;;;6.37;;
8592;SDS011;4334;49.982;8.398;2022-07-23T02:12:50;8.03;;;6.43;;
8592;SDS011;4334;49.982;8.398;2022-07-23T02:15:18;8.63;;;6.40;;
8592;SDS011;4334;49.982;8.398;2022-07-23T02:17:45;8.33;;;6.40;;
8592;SDS011;4334;49.982;8.398;2022-07-23T02:20:11;7.00;;;5.90;;
8592;SDS011;4334;49.982;8.398;2022-07-23T02:22:39;7.67;;;6.63;;
8592;SDS011;4334;49.982;8.398;2022-07-23T02:25:06;7.97;;;6.47;;
8592;SDS011;4334;49.982;8.398;2022-07-23T02:27:34;7.03;;;6.10;;
8592;SDS011;4334;49.982;8.398;2022-07-23T02:30:01;7.50;;;6.23;;
8592;SDS011;4334;49.982;8.398;2022-07-23T02:32:29;7.70;;;6.13;;
8592;SDS011;4334;49.982;8.398;2022-07-23T02:34:57;7.33;;;6.10;;
8592;SDS011;4334;49.982;8.398;2022-07-23T02:37:24;7.40;;;5.90;;
8592;SDS011;4334;49.982;8.398;2022-07-23T02:39:50;8.87;;;6.07;;
8592;SDS011;4334;49.982;8.398;2022-07-23T02:42:17;8.10;;;5.80;;
8592;SDS011;4334;49.982;8.398;2022-07-23T02:44:44;7.37;;;5.80;;
8592;SDS011;4334;49.982;8.398;2022-07-23T02:47:10;8.40;;;5.53;;
8592;SDS011;4334;49.982;8.398;2022-07-23T02:49:38;6.17;;;5.33;;
8592;SDS011;4334;49.982;8.398;2022-07-23T02:52:05;9.43;;;6.50;;
8592;SDS011;4334;49.982;8.398;2022-07-23T02:54:32;8.77;;;6.40;;
8592;SDS011;4334;49.982;8.398;2022-07-23T02:56:58;9.77;;;5.53;;
8592;SDS011;4334;49.982;8.398;2022-07-23T02:59:25;6.07;;;5.47;;
8592;SDS011;4334;49.982;8.398;2022-07-23T03:01:52;7.43;;;5.67;;
8592;SDS011;4334;49.982;8.398;2022-07-23T03:04:18;6.37;;;5.60;;
8592;SDS011;4334;49.982;8.398;2022-07-23T03:06:46;9.03;;;5.40;;
8592;SDS011;4334;49.982;8.398;2022-07-23T03:09:13;9.23;;;5.90;;
8592;SDS011;4334;49.982;8.398;2022-07-23T03:11:40;6.83;;;5.67;;
8592;SDS011;4334;49.982;8.398;2022-07-23T03:14:07;8.23;;;5.70;;
8592;SDS011;4334;49.982;8.398;2022-07-23T03:16:33;7.50;;;5.17;;
8592;SDS011;4334;49.982;8.398;2022-07-23T03:19:01;6.60;;;5.50;;
8592;SDS011;4334;49.982;8.398;2022-07-23T03:21:27;7.67;;;5.93;;
8592;SDS011;4334;49.982;8.398;2022-07-23T03:23:55;7.53;;;5.63;;
8592;SDS011;4334;49.982;8.398;2022-07-23T03:26:22;7.63;;;5.63;;
8592;SDS011;4334;49.982;8.398;2022-07-23T03:28:50;6.23;;;5.37;;
8592;SDS011;4334;49.982;8.398;2022-07-23T03:31:17;7.13;;;5.47;;
8592;SDS011;4334;49.982;8.398;2022-07-23T03:33:44;8.03;;;5.50;;
8592;SDS011;4334;49.982;8.398;2022-07-23T03:36:11;7.10;;;6.00;;
8592;SDS011;4334;49.982;8.398;2022-07-23T03:38:37;8.07;;;5.77;;
8592;SDS011;4334;49.982;8.398;2022-07-23T03:41:05;9.63;;;6.17;;
8592;SDS011;4334;49.982;8.398;2022-07-23T03:43:32;9.27;;;6.23;;
8592;SDS011;4334;49.982;8.398;2022-07-23T03:45:59;8.23;;;5.63;;
8592;SDS011;4334;49.982;8.398;2022-07-23T03:48:26;7.17;;;5.77;;
8592;SDS011;4334;49.982;8.398;2022-07-23T03:50:52;6.60;;;5.70;;
8592;SDS011;4334;49.982;8.398;2022-07-23T03:53:19;7.13;;;5.80;;
8592;SDS011;4334;49.982;8.398;2022-07-23T03:55:46;9.97;;;6.17;;
8592;SDS011;4334;49.982;8.398;2022-07-23T03:58:14;7.40;;;6.27;;
8592;SDS011;4334;49.982;8.398;2022-07-23T04:00:41;7.47;;;5.80;;
8592;SDS011;4334;49.982;8.398;2022-07-23T04:03:07;9.40;;;5.80;;
8592;SDS011;4334;49.982;8.398;2022-07-23T04:05:34;6.97;;;5.80;;
8592;SDS011;4334;49.982;8.398;2022-07-23T04:08:01;7.80;;;5.77;;
8592;SDS011;4334;49.982;8.398;2022-07-23T04:10:27;9.97;;;5.23;;
8592;SDS011;4334;49.982;8.398;2022-07-23T04:12:54;6.50;;;5.80;;
8592;SDS011;4334;49.982;8.398;2022-07-23T04:15:22;7.07;;;5.40;;
8592;SDS011;4334;49.982;8.398;2022-07-23T04:17:49;7.33;;;5.67;;
8592;SDS011;4334;49.982;8.398;2022-07-23T04:20:16;8.13;;;6.37;;
8592;SDS011;4334;49.982;8.398;2022-07-23T04:22:43;6.67;;;5.07;;
8592;SDS011;4334;49.982;8.398;2022-07-23T04:25:09;7.07;;;6.17;;
8592;SDS011;4334;49.982;8.398;2022-07-23T04:27:36;6.47;;;5.43;;
8592;SDS011;4334;49.982;8.398;2022-07-23T04:30:03;6.80;;;6.10;;
8592;SDS011;4334;49.982;8.398;2022-07-23T04:32:32;9.50;;;6.00;;
8592;SDS011;4334;49.982;8.398;2022-07-23T04:34:58;7.60;;;6.00;;
8592;SDS011;4334;49.982;8.398;2022-07-23T04:37:25;6.57;;;5.87;;
8592;SDS011;4334;49.982;8.398;2022-07-23T04:39:52;7.00;;;5.97;;
8592;SDS011;4334;49.982;8.398;2022-07-23T04:42:18;8.03;;;5.90;;
8592;SDS011;4334;49.982;8.398;2022-07-23T04:44:45;6.83;;;5.50;;
8592;SDS011;4334;49.982;8.398;2022-07-23T04:47:12;7.53;;;5.47;;
8592;SDS011;4334;49.982;8.398;2022-07-23T04:49:40;9.97;;;5.60;;
8592;SDS011;4334;49.982;8.398;2022-07-23T04:52:06;6.80;;;5.40;;
8592;SDS011;4334;49.982;8.398;2022-07-23T04:54:33;7.23;;;5.07;;
8592;SDS011;4334;49.982;8.398;2022-07-23T04:57:00;7.00;;;5.57;;
8592;SDS011;4334;49.982;8.398;2022-07-23T04:59:26;6.45;;;5.28;;
8592;SDS011;4334;49.982;8.398;2022-07-23T05:01:53;6.47;;;5.60;;
8592;SDS011;4334;49.982;8.398;2022-07-23T05:04:20;6.47;;;5.78;;
8592;SDS011;4334;49.982;8.398;2022-07-23T05:06:48;7.25;;;5.90;;
8592;SDS011;4334;49.982;8.398;2022-07-23T05:09:14;7.27;;;6.37;;
8592;SDS011;4334;49.982;8.398;2022-07-23T05:11:41;6.75;;;5.40;;
8592;SDS011;4334;49.982;8.398;2022-07-23T05:14:08;8.43;;;6.17;;
8592;SDS011;4334;49.982;8.398;2022-07-23T05:16:37;7.93;;;6.00;;
8592;SDS011;4334;49.982;8.398;2022-07-23T05:19:04;7.47;;;6.23;;
8592;SDS011;4334;49.982;8.398;2022-07-23T05:21:30;6.47;;;5.40;;
8592;SDS011;4334;49.982;8.398;2022-07-23T05:23:59;6.30;;;5.70;;
8592;SDS011;4334;49.982;8.398;2022-07-23T05:26:25;7.10;;;5.77;;
8592;SDS011;4334;49.982;8.398;2022-07-23T05:28:52;9.77;;;6.00;;
8592;SDS011;4334;49.982;8.398;2022-07-23T05:31:19;9.03;;;6.20;;
8592;SDS011;4334;49.982;8.398;2022-07-23T05:33:46;10.67;;;6.97;;
8592;SDS011;4334;49.982;8.398;2022-07-23T05:36:12;12.00;;;7.33;;
8592;SDS011;4334;49.982;8.398;2022-07-23T05:38:39;8.30;;;5.90;;
8592;SDS011;4334;49.982;8.398;2022-07-23T05:41:07;8.63;;;6.50;;
8592;SDS011;4334;49.982;8.398;2022-07-23T05:43:34;6.70;;;5.60;;
8592;SDS011;4334;49.982;8.398;2022-07-23T05:46:01;8.53;;;6.00;;
8592;SDS011;4334;49.982;8.398;2022-07-23T05:48:27;8.57;;;6.30;;
8592;SDS011;4334;49.982;8.398;2022-07-23T05:50:54;8.60;;;5.65;;
8592;SDS011;4334;49.982;8.398;2022-07-23T05:53:21;7.07;;;5.40;;
8592;SDS011;4334;49.982;8.398;2022-07-23T05:55:47;7.82;;;5.22;;
8592;SDS011;4334;49.982;8.398;2022-07-23T05:58:15;6.18;;;5.53;;
8592;SDS011;4334;49.982;8.398;2022-07-23T06:00:42;7.47;;;5.38;;
8592;SDS011;4334;49.982;8.398;2022-07-23T06:03:09;5.90;;;5.20;;
8592;SDS011;4334;49.982;8.398;2022-07-23T06:05:36;6.85;;;5.25;;
8592;SDS011;4334;49.982;8.398;2022-07-23T06:08:03;6.88;;;5.00;;
8592;SDS011;4334;49.982;8.398;2022-07-23T06:10:30;6.55;;;5.13;;
8592;SDS011;4334;49.982;8.398;2022-07-23T06:12:56;5.50;;;4.68;;
8592;SDS011;4334;49.982;8.398;2022-07-23T06:15:24;6.05;;;5.40;;
8592;SDS011;4334;49.982;8.398;2022-07-23T06:17:51;5.82;;;5.22;;
8592;SDS011;4334;49.982;8.398;2022-07-23T06:20:18;5.97;;;5.40;;
8592;SDS011;4334;49.982;8.398;2022-07-23T06:22:45;6.55;;;5.53;;
8592;SDS011;4334;49.982;8.398;2022-07-23T06:25:11;6.90;;;5.57;;
8592;SDS011;4334;49.982;8.398;2022-07-23T06:27:38;6.88;;;5.75;;
8592;SDS011;4334;49.982;8.398;2022-07-23T06:30:05;6.57;;;5.55;;
8592;SDS011;4334;49.982;8.398;2022-07-23T06:32:34;5.70;;;5.00;;
8592;SDS011;4334;49.982;8.398;2022-07-23T06:35:01;5.15;;;4.65;;
8592;SDS011;4334;49.982;8.398;2022-07-23T06:37:28;8.45;;;5.25;;
8592;SDS011;4334;49.982;8.398;2022-07-23T06:39:55;6.07;;;5.22;;
8592;SDS011;4334;49.982;8.398;2022-07-23T06:42:21;8.48;;;5.15;;
8592;SDS011;4334;49.982;8.398;2022-07-23T06:44:48;7.35;;;5.45;;
8592;SDS011;4334;49.982;8.398;2022-07-23T06:47:15;5.03;;;4.55;;
8592;SDS011;4334;49.982;8.398;2022-07-23T06:49:43;7.47;;;5.10;;
8592;SDS011;4334;49.982;8.398;2022-07-23T06:52:10;5.70;;;4.63;;
8592;SDS011;4334;49.982;8.398;2022-07-23T06:54:36;5.97;;;4.93;;
8592;SDS011;4334;49.982;8.398;2022-07-23T06:57:03;5.97;;;5.07;;
8592;SDS011;4334;49.982;8.398;2022-07-23T06:59:30;5.90;;;5.10;;
8592;SDS011;4334;49.982;8.398;2022-07-23T07:01:58;6.18;;;5.00;;
8592;SDS011;4334;49.982;8.398;2022-07-23T07:04:25;5.40;;;4.90;;
8592;SDS011;4334;49.982;8.398;2022-07-23T07:06:53;6.38;;;4.55;;
8592;SDS011;4334;49.982;8.398;2022-07-23T07:09:19;6.60;;;4.65;;
8592;SDS011;4334;49.982;8.398;2022-07-23T07:11:46;5.43;;;4.90;;
8592;SDS011;4334;49.982;8.398;2022-07-23T07:14:13;8.00;;;4.85;;
8592;SDS011;4334;49.982;8.398;2022-07-23T07:16:39;4.28;;;3.88;;
8592;SDS011;4334;49.982;8.398;2022-07-23T07:19:06;5.88;;;4.45;;
8592;SDS011;4334;49.982;8.398;2022-07-23T07:21:33;6.63;;;4.57;;
8592;SDS011;4334;49.982;8.398;2022-07-23T07:24:01;5.18;;;4.40;;
8592;SDS011;4334;49.982;8.398;2022-07-23T07:26:28;4.63;;;4.22;;
8592;SDS011;4334;49.982;8.398;2022-07-23T07:28:55;6.30;;;4.57;;
8592;SDS011;4334;49.982;8.398;2022-07-23T07:31:22;4.57;;;4.10;;
8592;SDS011;4334;49.982;8.398;2022-07-23T07:33:49;6.85;;;4.80;;
8592;SDS011;4334;49.982;8.398;2022-07-23T07:36:16;4.40;;;4.00;;
8592;SDS011;4334;49.982;8.398;2022-07-23T07:38:42;7.07;;;4.32;;
8592;SDS011;4334;49.982;8.398;2022-07-23T07:41:11;4.90;;;4.50;;
8592;SDS011;4334;49.982;8.398;2022-07-23T07:43:37;5.32;;;4.35;;
8592;SDS011;4334;49.982;8.398;2022-07-23T07:46:04;7.18;;;4.75;;
8592;SDS011;4334;49.982;8.398;2022-07-23T07:48:34;5.82;;;4.03;;
8592;SDS011;4334;49.982;8.398;2022-07-23T07:51:01;5.60;;;4.90;;
8592;SDS011;4334;49.982;8.398;2022-07-23T07:53:28;5.57;;;5.07;;
8592;SDS011;4334;49.982;8.398;2022-07-23T07:55:54;5.32;;;4.82;;
8592;SDS011;4334;49.982;8.398;2022-07-23T07:58:23;5.63;;;4.60;;
8592;SDS011;4334;49.982;8.398;2022-07-23T08:00:50;6.05;;;4.70;;
8592;SDS011;4334;49.982;8.398;2022-07-23T08:03:17;5.40;;;4.50;;
8592;SDS011;4334;49.982;8.398;2022-07-23T08:05:44;5.30;;;4.65;;
8592;SDS011;4334;49.982;8.398;2022-07-23T08:08:10;4.25;;;3.85;;
8592;SDS011;4334;49.982;8.398;2022-07-23T08:10:39;5.65;;;4.93;;
8592;SDS011;4334;49.982;8.398;2022-07-23T08:13:06;5.95;;;5.05;;
8592;SDS011;4334;49.982;8.398;2022-07-23T08:15:34;5.07;;;4.45;;
8592;SDS011;4334;49.982;8.398;2022-07-23T08:18:01;5.97;;;5.15;;
8592;SDS011;4334;49.982;8.398;2022-07-23T08:20:28;5.32;;;4.82;;
8592;SDS011;4334;49.982;8.398;2022-07-23T08:22:56;5.47;;;4.97;;
8592;SDS011;4334;49.982;8.398;2022-07-23T08:25:24;6.50;;;4.78;;
8592;SDS011;4334;49.982;8.398;2022-07-23T08:27:53;6.88;;;5.30;;
8592;SDS011;4334;49.982;8.398;2022-07-23T08:30:20;5.50;;;5.00;;
8592;SDS011;4334;49.982;8.398;2022-07-23T08:32:53;5.63;;;5.10;;
8592;SDS011;4334;49.982;8.398;2022-07-23T08:35:22;5.70;;;5.07;;
8592;SDS011;4334;49.982;8.398;2022-07-23T08:37:50;5.93;;;4.82;;
8592;SDS011;4334;49.982;8.398;2022-07-23T08:40:17;5.68;;;5.07;;
8592;SDS011;4334;49.982;8.398;2022-07-23T08:42:44;5.65;;;5.13;;
8592;SDS011;4334;49.982;8.398;2022-07-23T08:45:13;6.22;;;5.30;;
8592;SDS011;4334;49.982;8.398;2022-07-23T08:47:42;5.20;;;4.45;;
8592;SDS011;4334;49.982;8.398;2022-07-23T08:50:11;6.65;;;5.00;;
8592;SDS011;4334;49.982;8.398;2022-07-23T08:52:38;6.78;;;4.90;;
8592;SDS011;4334;49.982;8.398;2022-07-23T08:55:06;5.32;;;4.75;;
8592;SDS011;4334;49.982;8.398;2022-07-23T08:57:34;5.07;;;4.45;;
8592;SDS011;4334;49.982;8.398;2022-07-23T09:00:00;4.75;;;4.35;;
8592;SDS011;4334;49.982;8.398;2022-07-23T09:02:29;5.95;;;5.00;;
8592;SDS011;4334;49.982;8.398;2022-07-23T09:04:55;4.97;;;4.47;;
8592;SDS011;4334;49.982;8.398;2022-07-23T09:07:23;5.57;;;4.90;;
8592;SDS011;4334;49.982;8.398;2022-07-23T09:09:58;5.05;;;4.55;;
8592;SDS011;4334;49.982;8.398;2022-07-23T09:12:31;5.45;;;4.95;;
8592;SDS011;4334;49.982;8.398;2022-07-23T09:14:59;5.50;;;4.63;;
8592;SDS011;4334;49.982;8.398;2022-07-23T09:17:31;6.80;;;5.35;;
8592;SDS011;4334;49.982;8.398;2022-07-23T09:20:07;6.32;;;4.72;;
8592;SDS011;4334;49.982;8.398;2022-07-23T09:22:36;5.50;;;5.00;;
8592;SDS011;4334;49.982;8.398;2022-07-23T09:25:10;7.32;;;4.70;;
8592;SDS011;4334;49.982;8.398;2022-07-23T09:27:45;5.28;;;4.78;;
8592;SDS011;4334;49.982;8.398;2022-07-23T09:30:14;4.85;;;4.32;;
8592;SDS011;4334;49.982;8.398;2022-07-23T09:32:41;5.43;;;4.72;;
8592;SDS011;4334;49.982;8.398;2022-07-23T09:35:08;5.50;;;4.35;;
8592;SDS011;4334;49.982;8.398;2022-07-23T09:37:36;4.80;;;4.40;;
8592;SDS011;4334;49.982;8.398;2022-07-23T09:40:04;5.43;;;4.55;;
8592;SDS011;4334;49.982;8.398;2022-07-23T09:42:31;4.40;;;4.00;;
8592;SDS011;4334;49.982;8.398;2022-07-23T09:44:59;5.82;;;4.30;;
8592;SDS011;4334;49.982;8.398;2022-07-23T09:47:27;4.80;;;4.30;;
8592;SDS011;4334;49.982;8.398;2022-07-23T09:49:59;4.45;;;4.05;;
8592;SDS011;4334;49.982;8.398;2022-07-23T09:52:27;5.30;;;4.18;;
8592;SDS011;4334;49.982;8.398;2022-07-23T09:54:59;5.90;;;4.30;;
8592;SDS011;4334;49.982;8.398;2022-07-23T09:57:26;5.03;;;4.10;;
8592;SDS011;4334;49.982;8.398;2022-07-23T09:59:54;5.43;;;3.70;;
8592;SDS011;4334;49.982;8.398;2022-07-23T10:02:23;4.90;;;3.85;;
8592;SDS011;4334;49.982;8.398;2022-07-23T10:04:51;5.63;;;4.20;;
8592;SDS011;4334;49.982;8.398;2022-07-23T10:07:20;4.22;;;3.67;;
8592;SDS011;4334;49.982;8.398;2022-07-23T10:09:48;4.20;;;3.80;;
8592;SDS011;4334;49.982;8.398;2022-07-23T10:12:19;3.78;;;3.42;;
8592;SDS011;4334;49.982;8.398;2022-07-23T10:14:54;4.80;;;3.55;;
8592;SDS011;4334;49.982;8.398;2022-07-23T10:17:22;4.43;;;3.80;;
8592;SDS011;4334;49.982;8.398;2022-07-23T10:19:49;5.85;;;3.92;;
8592;SDS011;4334;49.982;8.398;2022-07-23T10:22:18;4.22;;;3.72;;
8592;SDS011;4334;49.982;8.398;2022-07-23T10:24:53;4.43;;;3.97;;
8592;SDS011;4334;49.982;8.398;2022-07-23T10:27:39;4.25;;;3.88;;
8592;SDS011;4334;49.982;8.398;2022-07-23T10:30:28;4.32;;;3.92;;
8592;SDS011;4334;49.982;8.398;2022-07-23T10:33:05;4.30;;;3.88;;
8592;SDS011;4334;49.982;8.398;2022-07-23T10:35:42;4.03;;;3.63;;
8592;SDS011;4334;49.982;8.398;2022-07-23T10:38:13;4.40;;;3.83;;
8592;SDS011;4334;49.982;8.398;2022-07-23T10:40:55;5.35;;;3.85;;
8592;SDS011;4334;49.982;8.398;2022-07-23T10:43:24;6.45;;;3.88;;
8592;SDS011;4334;49.982;8.398;2022-07-23T10:45:52;4.50;;;4.10;;
8592;SDS011;4334;49.982;8.398;2022-07-23T10:48:20;4.30;;;3.90;;
8592;SDS011;4334;49.982;8.398;2022-07-23T10:51:07;4.00;;;3.60;;
8592;SDS011;4334;49.982;8.398;2022-07-23T10:53:54;4.57;;;4.18;;
8592;SDS011;4334;49.982;8.398;2022-07-23T10:59:36;4.65;;;3.72;;
8592;SDS011;4334;49.982;8.398;2022-07-23T11:02:38;4.40;;;4.00;;
8592;SDS011;4334;49.982;8.398;2022-07-23T11:05:06;5.30;;;3.90;;
8592;SDS011;4334;49.982;8.398;2022-07-23T11:07:35;6.05;;;4.13;;
8592;SDS011;4334;49.982;8.398;2022-07-23T11:10:02;5.00;;;4.00;;
8592;SDS011;4334;49.982;8.398;2022-07-23T11:12:33;5.45;;;4.32;;
8592;SDS011;4334;49.982;8.398;2022-07-23T11:15:06;4.72;;;4.25;;
8592;SDS011;4334;49.982;8.398;2022-07-23T11:17:35;6.50;;;4.03;;
8592;SDS011;4334;49.982;8.398;2022-07-23T11:20:13;6.63;;;4.50;;
8592;SDS011;4334;49.982;8.398;2022-07-23T11:22:48;6.38;;;4.35;;
8592;SDS011;4334;49.982;8.398;2022-07-23T11:25:36;5.13;;;3.95;;
8592;SDS011;4334;49.982;8.398;2022-07-23T11:28:10;5.55;;;3.83;;
8592;SDS011;4334;49.982;8.398;2022-07-23T11:30:42;4.78;;;4.10;;
8592;SDS011;4334;49.982;8.398;2022-07-23T11:33:18;4.82;;;4.30;;
8592;SDS011;4334;49.982;8.398;2022-07-23T11:35:47;4.53;;;4.10;;
8592;SDS011;4334;49.982;8.398;2022-07-23T11:38:17;5.40;;;4.00;;
8592;SDS011;4334;49.982;8.398;2022-07-23T11:40:48;5.68;;;4.40;;
8592;SDS011;4334;49.982;8.398;2022-07-23T11:43:17;4.43;;;4.03;;
8592;SDS011;4334;49.982;8.398;2022-07-23T11:45:46;5.00;;;4.50;;
8592;SDS011;4334;49.982;8.398;2022-07-23T11:48:16;5.05;;;4.43;;
8592;SDS011;4334;49.982;8.398;2022-07-23T11:50:44;5.35;;;4.18;;
8592;SDS011;4334;49.982;8.398;2022-07-23T11:53:11;4.35;;;3.95;;
8592;SDS011;4334;49.982;8.398;2022-07-23T11:55:38;5.57;;;4.50;;
8592;SDS011;4334;49.982;8.398;2022-07-23T11:58:05;5.35;;;4.40;;
8592;SDS011;4334;49.982;8.398;2022-07-23T12:00:32;4.32;;;3.92;;
8592;SDS011;4334;49.982;8.398;2022-07-23T12:03:01;4.38;;;3.70;;
8592;SDS011;4334;49.982;8.398;2022-07-23T12:05:31;5.75;;;4.07;;
8592;SDS011;4334;49.982;8.398;2022-07-23T12:08:01;4.72;;;4.13;;
8592;SDS011;4334;49.982;8.398;2022-07-23T12:10:30;5.03;;;4.35;;
8592;SDS011;4334;49.982;8.398;2022-07-23T12:13:01;6.65;;;4.20;;
8592;SDS011;4334;49.982;8.398;2022-07-23T12:15:30;4.30;;;3.90;;
8592;SDS011;4334;49.982;8.398;2022-07-23T12:17:59;6.43;;;4.35;;
8592;SDS011;4334;49.982;8.398;2022-07-23T12:20:28;4.72;;;4.13;;
8592;SDS011;4334;49.982;8.398;2022-07-23T12:22:57;4.88;;;4.20;;
8592;SDS011;4334;49.982;8.398;2022-07-23T12:25:26;4.60;;;4.07;;
8592;SDS011;4334;49.982;8.398;2022-07-23T12:27:58;4.28;;;3.88;;
8592;SDS011;4334;49.982;8.398;2022-07-23T12:30:27;4.63;;;4.22;;
8592;SDS011;4334;49.982;8.398;2022-07-23T12:32:56;4.63;;;4.22;;
8592;SDS011;4334;49.982;8.398;2022-07-23T12:35:30;4.35;;;3.95;;
8592;SDS011;4334;49.982;8.398;2022-07-23T12:38:00;4.43;;;4.00;;
8592;SDS011;4334;49.982;8.398;2022-07-23T12:40:29;5.00;;;4.15;;
8592;SDS011;4334;49.982;8.398;2022-07-23T12:42:59;4.30;;;3.92;;
8592;SDS011;4334;49.982;8.398;2022-07-23T12:45:27;4.85;;;4.25;;
8592;SDS011;4334;49.982;8.398;2022-07-23T12:48:07;4.05;;;3.65;;
8592;SDS011;4334;49.982;8.398;2022-07-23T12:50:40;4.63;;;4.10;;
8592;SDS011;4334;49.982;8.398;2022-07-23T12:53:09;4.32;;;3.92;;
8592;SDS011;4334;49.982;8.398;2022-07-23T12:55:41;4.85;;;4.35;;
8592;SDS011;4334;49.982;8.398;2022-07-23T12:58:10;4.93;;;4.20;;
8592;SDS011;4334;49.982;8.398;2022-07-23T13:03:33;4.40;;;4.00;;
8592;SDS011;4334;49.982;8.398;2022-07-23T13:06:04;4.60;;;4.20;;
8592;SDS011;4334;49.982;8.398;2022-07-23T13:08:32;5.38;;;4.40;;
8592;SDS011;4334;49.982;8.398;2022-07-23T13:11:00;5.72;;;3.97;;
8592;SDS011;4334;49.982;8.398;2022-07-23T13:13:28;4.70;;;4.30;;
8592;SDS011;4334;49.982;8.398;2022-07-23T13:15:56;5.80;;;4.60;;
8592;SDS011;4334;49.982;8.398;2022-07-23T13:18:24;4.80;;;4.03;;
8592;SDS011;4334;49.982;8.398;2022-07-23T13:20:51;4.65;;;4.00;;
8592;SDS011;4334;49.982;8.398;2022-07-23T13:23:20;4.35;;;3.95;;
8592;SDS011;4334;49.982;8.398;2022-07-23T13:25:47;6.38;;;3.95;;
8592;SDS011;4334;49.982;8.398;2022-07-23T13:28:15;4.72;;;4.30;;
8592;SDS011;4334;49.982;8.398;2022-07-23T13:30:42;6.03;;;4.40;;
8592;SDS011;4334;49.982;8.398;2022-07-23T13:33:10;5.72;;;3.88;;
8592;SDS011;4334;49.982;8.398;2022-07-23T13:35:37;4.32;;;3.83;;
8592;SDS011;4334;49.982;8.398;2022-07-23T13:38:05;4.50;;;4.10;;
8592;SDS011;4334;49.982;8.398;2022-07-23T13:40:34;4.30;;;3.90;;
8592;SDS011;4334;49.982;8.398;2022-07-23T13:43:03;7.70;;;3.90;;
8592;SDS011;4334;49.982;8.398;2022-07-23T13:45:30;5.07;;;4.07;;
8592;SDS011;4334;49.982;8.398;2022-07-23T13:47:57;4.22;;;3.83;;
8592;SDS011;4334;49.982;8.398;2022-07-23T13:50:24;5.45;;;4.00;;
8592;SDS011;4334;49.982;8.398;2022-07-23T13:52:51;4.32;;;3.65;;
8592;SDS011;4334;49.982;8.398;2022-07-23T13:55:17;4.50;;;4.10;;
8592;SDS011;4334;49.982;8.398;2022-07-23T13:57:45;6.22;;;4.30;;
8592;SDS011;4334;49.982;8.398;2022-07-23T14:00:13;4.53;;;4.13;;
8592;SDS011;4334;49.982;8.398;2022-07-23T14:02:40;4.78;;;4.28;;
8592;SDS011;4334;49.982;8.398;2022-07-23T14:05:08;4.55;;;4.07;;
8592;SDS011;4334;49.982;8.398;2022-07-23T14:07:36;7.00;;;4.10;;
8592;SDS011;4334;49.982;8.398;2022-07-23T14:10:04;4.95;;;4.20;;
8592;SDS011;4334;49.982;8.398;2022-07-23T14:12:32;4.65;;;4.25;;
8592;SDS011;4334;49.982;8.398;2022-07-23T14:15:00;6.07;;;4.35;;
8592;SDS011;4334;49.982;8.398;2022-07-23T14:17:27;6.35;;;4.20;;
8592;SDS011;4334;49.982;8.398;2022-07-23T14:19:54;4.93;;;4.20;;
8592;SDS011;4334;49.982;8.398;2022-07-23T14:22:21;6.32;;;4.40;;
8592;SDS011;4334;49.982;8.398;2022-07-23T14:24:48;4.72;;;4.32;;
8592;SDS011;4334;49.982;8.398;2022-07-23T14:27:15;5.20;;;3.97;;
8592;SDS011;4334;49.982;8.398;2022-07-23T14:29:42;7.55;;;4.07;;
8592;SDS011;4334;49.982;8.398;2022-07-23T14:32:10;5.22;;;4.18;;
8592;SDS011;4334;49.982;8.398;2022-07-23T14:34:37;4.40;;;3.83;;
8592;SDS011;4334;49.982;8.398;2022-07-23T14:37:03;4.43;;;4.00;;
8592;SDS011;4334;49.982;8.398;2022-07-23T14:39:30;4.95;;;4.13;;
8592;SDS011;4334;49.982;8.398;2022-07-23T14:41:57;4.30;;;3.90;;
8592;SDS011;4334;49.982;8.398;2022-07-23T14:44:24;5.07;;;4.28;;
8592;SDS011;4334;49.982;8.398;2022-07-23T14:46:50;4.30;;;3.90;;
8592;SDS011;4334;49.982;8.398;2022-07-23T14:49:19;4.57;;;4.13;;
8592;SDS011;4334;49.982;8.398;2022-07-23T14:51:45;8.05;;;4.03;;
8592;SDS011;4334;49.982;8.398;2022-07-23T14:54:12;5.97;;;4.40;;
8592;SDS011;4334;49.982;8.398;2022-07-23T14:56:39;8.20;;;4.30;;
8592;SDS011;4334;49.982;8.398;2022-07-23T14:59:06;4.65;;;4.25;;
8592;SDS011;4334;49.982;8.398;2022-07-23T15:01:33;7.30;;;4.38;;
8592;SDS011;4334;49.982;8.398;2022-07-23T15:04:01;5.72;;;4.55;;
8592;SDS011;4334;49.982;8.398;2022-07-23T15:06:29;4.30;;;3.90;;
8592;SDS011;4334;49.982;8.398;2022-07-23T15:08:56;4.95;;;4.45;;
8592;SDS011;4334;49.982;8.398;2022-07-23T15:11:23;4.55;;;4.15;;
8592;SDS011;4334;49.982;8.398;2022-07-23T15:13:50;5.07;;;4.18;;
8592;SDS011;4334;49.982;8.398;2022-07-23T15:16:17;4.78;;;4.28;;
8592;SDS011;4334;49.982;8.398;2022-07-23T15:18:44;4.90;;;4.00;;
8592;SDS011;4334;49.982;8.398;2022-07-23T15:21:11;4.90;;;4.22;;
8592;SDS011;4334;49.982;8.398;2022-07-23T15:23:39;4.75;;;3.75;;
8592;SDS011;4334;49.982;8.398;2022-07-23T15:26:07;4.20;;;3.80;;